Time;durP1;ratioP1;P1;durP2;ratioP2;P2;SDS_P1;SDS_P2;PMS_P1;PMS_P2;Temp;Humidity;BMP_temperature;BMP_pressure;BME280_temperature;BME280_humidity;BME280_pressure;Samples;Min_cycle;Max_cycle;Signal;HPM_P1;HPM_P2
2023/05/17 00:04:20;;;;;;;12.15;4.40;;;;;;;;;;10367940;28;20600;-80
2023/05/17 00:09:27;;;;;;;12.80;5.10;;;;;;;;;;10408509;28;20041;-75
2023/05/17 00:14:27;;;;;;;13.48;4.50;;;;;;;;;;10405693;28;20407;-75
2023/05/17 00:19:29;;;;;;;16.55;5.60;;;;;;;;;;10375350;28;20471;-75
2023/05/17 00:24:29;;;;;;;15.52;5.65;;;;;;;;;;10364227;28;20057;-76
2023/05/17 00:29:29;;;;;;;14.98;5.65;;;;;;;;;;10385307;28;20474;-76
2023/05/17 00:34:30;;;;;;;14.57;5.93;;;;;;;;;;10391185;28;20049;-75
2023/05/17 00:39:30;;;;;;;19.17;5.53;;;;;;;;;;10383284;28;20272;-75
2023/05/17 00:44:30;;;;;;;17.23;5.93;;;;;;;;;;10382533;28;20053;-74
2023/05/17 00:49:30;;;;;;;18.80;5.47;;;;;;;;;;10359260;28;20140;-75
2023/05/17 00:54:31;;;;;;;13.27;5.35;;;;;;;;;;10342708;28;20033;-75
2023/05/17 00:59:31;;;;;;;15.18;4.20;;;;;;;;;;10364965;28;20030;-76
2023/05/17 01:04:31;;;;;;;9.90;4.80;;;;;;;;;;10400552;28;20152;-80
2023/05/17 01:09:32;;;;;;;20.63;5.07;;;;;;;;;;10400167;28;20035;-75
2023/05/17 01:14:36;;;;;;;13.50;5.72;;;;;;;;;;10383783;28;20120;-81
2023/05/17 01:19:44;;;;;;;14.02;5.63;;;;;;;;;;10408214;28;20033;-75
2023/05/17 01:25:09;;;;;;;16.50;7.28;;;;;;;;;;10389997;28;20034;-75
2023/05/17 01:30:11;;;;;;;13.70;6.45;;;;;;;;;;10365094;28;20030;-75
2023/05/17 01:35:14;;;;;;;21.05;6.07;;;;;;;;;;10392324;28;20071;-78
2023/05/17 01:40:15;;;;;;;14.93;4.93;;;;;;;;;;10365809;28;20143;-75
2023/05/17 01:45:27;;;;;;;17.73;5.05;;;;;;;;;;10364644;28;20069;-79
2023/05/17 01:50:28;;;;;;;13.80;5.43;;;;;;;;;;10359738;28;20037;-75
2023/05/17 01:55:32;;;;;;;28.73;6.40;;;;;;;;;;10365825;28;20060;-76
2023/05/17 02:00:32;;;;;;;12.18;6.15;;;;;;;;;;10370215;28;20033;-76
2023/05/17 02:05:32;;;;;;;20.95;6.93;;;;;;;;;;10399014;28;20090;-78
2023/05/17 02:10:34;;;;;;;17.05;6.32;;;;;;;;;;10364142;28;20129;-75
2023/05/17 02:15:34;;;;;;;14.10;6.57;;;;;;;;;;10404675;28;20444;-78
2023/05/17 02:20:35;;;;;;;21.08;8.93;;;;;;;;;;10394751;28;20034;-76
2023/05/17 02:25:35;;;;;;;19.27;8.13;;;;;;;;;;10388933;28;20132;-83
2023/05/17 02:30:39;;;;;;;22.35;11.70;;;;;;;;;;10386606;28;20025;-76
2023/05/17 02:35:39;;;;;;;18.83;9.48;;;;;;;;;;10387710;28;20072;-76
2023/05/17 02:40:40;;;;;;;21.45;9.38;;;;;;;;;;10387337;28;20116;-76
2023/05/17 02:45:42;;;;;;;28.60;10.88;;;;;;;;;;10362190;28;20172;-77
2023/05/17 02:50:42;;;;;;;23.80;10.25;;;;;;;;;;10374168;28;20033;-78
2023/05/17 02:55:43;;;;;;;21.27;10.52;;;;;;;;;;10388816;28;20560;-80
2023/05/17 03:00:44;;;;;;;25.15;11.00;;;;;;;;;;10403554;28;20582;-76
2023/05/17 03:05:44;;;;;;;23.90;10.80;;;;;;;;;;10381010;28;20025;-81
2023/05/17 03:10:45;;;;;;;22.98;12.02;;;;;;;;;;10373733;28;20062;-79
2023/05/17 03:15:48;;;;;;;24.83;11.73;;;;;;;;;;10371171;28;20104;-77
2023/05/17 03:20:48;;;;;;;24.75;11.52;;;;;;;;;;10385157;28;20382;-80
2023/05/17 03:25:48;;;;;;;21.23;12.02;;;;;;;;;;10387703;28;20043;-83
2023/05/17 03:30:50;;;;;;;29.50;13.50;;;;;;;;;;10383985;28;20038;-77
2023/05/17 03:35:50;;;;;;;32.97;14.30;;;;;;;;;;10340586;28;20061;-77
2023/05/17 03:40:53;;;;;;;45.45;16.25;;;;;;;;;;10349399;28;20251;-78
2023/05/17 03:45:53;;;;;;;27.88;13.07;;;;;;;;;;10365606;28;20512;-84
2023/05/17 03:50:55;;;;;;;31.45;15.15;;;;;;;;;;10390484;28;20055;-83
2023/05/17 03:55:55;;;;;;;32.85;14.18;;;;;;;;;;10384281;28;20474;-74
2023/05/17 04:01:00;;;;;;;30.80;13.00;;;;;;;;;;10385087;28;20029;-85
2023/05/17 04:06:05;;;;;;;28.83;13.60;;;;;;;;;;10390254;28;20033;-81
2023/05/17 04:11:09;;;;;;;31.55;13.77;;;;;;;;;;10370814;28;20033;-73
2023/05/17 04:16:26;;;;;;;34.88;14.30;;;;;;;;;;10388338;28;20157;-81
2023/05/17 04:21:26;;;;;;;26.37;13.07;;;;;;;;;;10382349;28;20033;-75
2023/05/17 04:26:26;;;;;;;29.73;13.13;;;;;;;;;;10400476;28;20025;-76
2023/05/17 04:31:27;;;;;;;28.00;13.45;;;;;;;;;;10400107;28;20420;-80
2023/05/17 04:36:28;;;;;;;31.13;14.77;;;;;;;;;;10362428;28;20033;-81
2023/05/17 04:41:30;;;;;;;29.52;15.02;;;;;;;;;;10361678;28;20131;-78
2023/05/17 04:46:30;;;;;;;31.20;15.00;;;;;;;;;;10370615;28;20128;-81
2023/05/17 04:51:31;;;;;;;31.95;13.10;;;;;;;;;;10403075;28;20025;-79
2023/05/17 04:56:33;;;;;;;24.63;13.93;;;;;;;;;;10408158;28;20399;-77
2023/05/17 05:01:34;;;;;;;30.13;13.60;;;;;;;;;;10408539;28;20930;-78
2023/05/17 05:06:34;;;;;;;26.58;13.85;;;;;;;;;;10391538;28;20232;-78
2023/05/17 05:11:35;;;;;;;32.55;14.45;;;;;;;;;;10404360;28;20033;-82
2023/05/17 05:16:36;;;;;;;28.77;13.57;;;;;;;;;;10410441;28;20034;-76
2023/05/17 05:21:37;;;;;;;23.33;13.02;;;;;;;;;;10391072;28;20022;-82
2023/05/17 05:26:38;;;;;;;27.02;12.70;;;;;;;;;;10398208;28;20049;-71
2023/05/17 05:31:41;;;;;;;30.33;12.05;;;;;;;;;;10413525;28;20033;-75
2023/05/17 05:36:41;;;;;;;34.10;12.20;;;;;;;;;;10404017;28;20140;-77
2023/05/17 05:41:42;;;;;;;17.27;9.40;;;;;;;;;;10404264;28;20080;-77
2023/05/17 05:46:42;;;;;;;20.10;9.07;;;;;;;;;;10375276;28;20029;-69
2023/05/17 05:51:53;;;;;;;14.50;7.72;;;;;;;;;;10379608;28;20030;-82
2023/05/17 05:56:55;;;;;;;23.02;8.57;;;;;;;;;;10417917;28;20044;-79
2023/05/17 06:01:55;;;;;;;15.30;8.05;;;;;;;;;;10398608;28;20048;-79
2023/05/17 06:06:56;;;;;;;14.00;7.63;;;;;;;;;;10382369;28;20261;-82
2023/05/17 06:11:58;;;;;;;22.48;9.88;;;;;;;;;;10394675;28;20120;-83
2023/05/17 06:16:58;;;;;;;23.77;9.15;;;;;;;;;;10381776;28;20551;-79
2023/05/17 06:21:58;;;;;;;19.07;7.40;;;;;;;;;;10413319;28;20351;-80
2023/05/17 06:26:58;;;;;;;17.07;7.60;;;;;;;;;;10393395;28;20537;-82
2023/05/17 06:31:59;;;;;;;17.23;9.30;;;;;;;;;;10393674;28;20033;-86
2023/05/17 06:37:00;;;;;;;19.75;8.27;;;;;;;;;;10417651;28;20091;-75
2023/05/17 06:42:00;;;;;;;15.88;8.45;;;;;;;;;;10413868;28;20053;-81
2023/05/17 06:47:11;;;;;;;20.92;8.65;;;;;;;;;;10397662;28;20041;-80
2023/05/17 06:52:16;;;;;;;22.73;10.02;;;;;;;;;;10408666;28;20044;-73
2023/05/17 06:57:25;;;;;;;21.33;10.02;;;;;;;;;;10408814;28;20030;-80
2023/05/17 07:02:26;;;;;;;20.75;8.88;;;;;;;;;;10392280;28;20075;-80
2023/05/17 07:07:27;;;;;;;21.17;9.38;;;;;;;;;;10367334;28;20050;-82
2023/05/17 07:12:27;;;;;;;18.63;10.38;;;;;;;;;;10392302;28;20113;-80
2023/05/17 07:17:28;;;;;;;22.70;8.98;;;;;;;;;;10407061;28;20040;-78
2023/05/17 07:22:28;;;;;;;21.63;8.77;;;;;;;;;;10373367;28;20038;-78
2023/05/17 07:27:28;;;;;;;18.00;8.38;;;;;;;;;;10389578;28;20032;-79
2023/05/17 07:32:29;;;;;;;22.50;9.05;;;;;;;;;;10371957;28;20483;-80
2023/05/17 07:37:29;;;;;;;21.03;7.97;;;;;;;;;;10388774;28;20048;-82
2023/05/17 07:42:31;;;;;;;24.50;8.80;;;;;;;;;;10389745;28;20308;-77
2023/05/17 07:47:33;;;;;;;20.85;9.35;;;;;;;;;;10407851;28;20577;-76
2023/05/17 07:52:34;;;;;;;18.40;8.52;;;;;;;;;;10407458;28;20491;-79
2023/05/17 07:57:34;;;;;;;21.50;8.70;;;;;;;;;;10362641;28;20037;-80
2023/05/17 08:02:35;;;;;;;17.10;8.20;;;;;;;;;;10385685;28;20086;-80
2023/05/17 08:07:38;;;;;;;19.58;9.90;;;;;;;;;;10363672;28;20085;-74
2023/05/17 08:12:41;;;;;;;19.65;10.10;;;;;;;;;;10355267;28;20025;-82
2023/05/17 08:17:43;;;;;;;21.42;8.43;;;;;;;;;;10387038;28;20490;-84
2023/05/17 08:22:44;;;;;;;24.10;8.13;;;;;;;;;;10387913;28;20532;-84
2023/05/17 08:27:45;;;;;;;18.60;8.75;;;;;;;;;;10410300;28;20045;-79
2023/05/17 08:32:46;;;;;;;21.90;8.15;;;;;;;;;;10399115;28;20041;-82
2023/05/17 08:37:46;;;;;;;19.35;8.40;;;;;;;;;;10359823;28;20379;-81
2023/05/17 08:42:49;;;;;;;22.80;7.82;;;;;;;;;;10404443;28;20068;-77
2023/05/17 08:47:49;;;;;;;22.17;8.05;;;;;;;;;;10388802;28;20464;-71
2023/05/17 08:52:51;;;;;;;21.77;7.55;;;;;;;;;;10398146;28;20037;-81
2023/05/17 08:57:52;;;;;;;19.15;8.40;;;;;;;;;;10384222;28;20049;-77
2023/05/17 09:02:53;;;;;;;21.25;8.38;;;;;;;;;;10401092;28;20059;-72
2023/05/17 09:07:54;;;;;;;26.75;8.82;;;;;;;;;;10401249;28;20033;-70
2023/05/17 09:12:56;;;;;;;21.95;7.82;;;;;;;;;;10413113;28;20087;-73
2023/05/17 09:17:58;;;;;;;24.33;11.13;;;;;;;;;;10415356;28;20049;-79
2023/05/17 09:23:00;;;;;;;22.15;8.48;;;;;;;;;;10378003;28;20495;-82
2023/05/17 09:28:01;;;;;;;19.73;7.78;;;;;;;;;;10380140;28;20037;-77
2023/05/17 09:33:08;;;;;;;21.58;8.35;;;;;;;;;;10395063;28;20064;-76
2023/05/17 09:38:10;;;;;;;23.42;8.55;;;;;;;;;;10408674;28;20045;-79
2023/05/17 09:43:11;;;;;;;20.35;7.82;;;;;;;;;;10377755;28;20148;-77
2023/05/17 09:48:12;;;;;;;25.00;7.75;;;;;;;;;;10409976;28;20515;-78
2023/05/17 09:53:26;;;;;;;19.10;7.38;;;;;;;;;;10414540;28;20041;-77
2023/05/17 09:58:27;;;;;;;14.60;5.95;;;;;;;;;;10392415;28;20029;-78
2023/05/17 10:03:34;;;;;;;16.23;6.55;;;;;;;;;;10397422;28;20037;-79
2023/05/17 10:08:36;;;;;;;21.52;6.03;;;;;;;;;;10379872;28;20037;-80
2023/05/17 10:13:46;;;;;;;19.98;6.30;;;;;;;;;;10354729;28;20136;-79
2023/05/17 10:18:46;;;;;;;17.52;7.53;;;;;;;;;;10366937;28;20421;-77
2023/05/17 10:23:48;;;;;;;18.10;8.07;;;;;;;;;;10348853;28;20030;-85
2023/05/17 10:28:51;;;;;;;17.73;6.28;;;;;;;;;;10336436;28;20127;-82
2023/05/17 10:33:52;;;;;;;20.83;6.60;;;;;;;;;;10357465;28;20408;-77
2023/05/17 10:39:06;;;;;;;17.15;6.20;;;;;;;;;;10378385;28;20217;-76
2023/05/17 10:44:08;;;;;;;14.07;7.50;;;;;;;;;;10390053;28;20069;-81
2023/05/17 10:49:09;;;;;;;19.77;6.75;;;;;;;;;;10350320;28;20088;-79
2023/05/17 10:54:19;;;;;;;22.98;7.18;;;;;;;;;;10351197;28;20062;-78
2023/05/17 10:59:25;;;;;;;15.30;6.35;;;;;;;;;;10349801;28;20038;-84
2023/05/17 11:04:36;;;;;;;13.00;6.05;;;;;;;;;;10350558;28;20577;-78
2023/05/17 11:09:38;;;;;;;13.75;6.22;;;;;;;;;;10376421;28;20029;-76
2023/05/17 11:14:53;;;;;;;15.35;5.32;;;;;;;;;;10345645;28;20045;-81
2023/05/17 11:19:53;;;;;;;16.65;6.93;;;;;;;;;;10354811;28;20033;-81
2023/05/17 11:24:55;;;;;;;19.10;7.37;;;;;;;;;;10361928;28;20048;-77
2023/05/17 11:29:59;;;;;;;22.27;7.93;;;;;;;;;;10360507;28;20459;-78
2023/05/17 11:35:01;;;;;;;17.48;7.18;;;;;;;;;;10353764;28;20044;-82
2023/05/17 11:40:04;;;;;;;21.35;8.43;;;;;;;;;;10343705;28;20042;-78
2023/05/17 11:45:05;;;;;;;22.98;8.15;;;;;;;;;;10361855;28;20442;-76
2023/05/17 11:50:05;;;;;;;18.23;7.60;;;;;;;;;;10407996;28;20042;-81
2023/05/17 11:55:07;;;;;;;21.60;7.32;;;;;;;;;;10404458;28;20029;-81
2023/05/17 12:00:07;;;;;;;15.43;6.18;;;;;;;;;;10385740;28;20053;-78
2023/05/17 12:05:08;;;;;;;24.48;7.20;;;;;;;;;;10391303;28;20415;-81
2023/05/17 12:10:22;;;;;;;30.50;9.17;;;;;;;;;;10378070;28;20084;-80
2023/05/17 12:15:22;;;;;;;18.77;7.63;;;;;;;;;;10382192;28;20314;-80
2023/05/17 12:20:22;;;;;;;18.37;6.27;;;;;;;;;;10399210;28;20536;-78
2023/05/17 12:25:24;;;;;;;25.70;6.80;;;;;;;;;;10392315;28;20086;-79
2023/05/17 12:30:24;;;;;;;17.50;6.88;;;;;;;;;;10395917;28;20430;-71
2023/05/17 12:35:24;;;;;;;15.80;6.68;;;;;;;;;;10382882;28;20041;-79
2023/05/17 12:40:31;;;;;;;17.20;7.20;;;;;;;;;;10410766;28;20095;-75
2023/05/17 12:45:33;;;;;;;16.98;7.85;;;;;;;;;;10413782;28;20144;-82
2023/05/17 12:50:33;;;;;;;21.27;8.45;;;;;;;;;;10391717;28;20523;-84
2023/05/17 12:55:35;;;;;;;16.67;8.80;;;;;;;;;;10379515;28;20130;-83
2023/05/17 13:00:35;;;;;;;16.65;7.43;;;;;;;;;;10387903;28;20487;-75
2023/05/17 13:05:38;;;;;;;21.88;7.93;;;;;;;;;;10380464;28;20045;-79
2023/05/17 13:10:38;;;;;;;18.45;8.05;;;;;;;;;;10393510;28;20072;-84
2023/05/17 13:15:39;;;;;;;12.77;6.65;;;;;;;;;;10391982;28;20554;-77
2023/05/17 13:20:39;;;;;;;16.13;6.65;;;;;;;;;;10410122;28;20029;-76
2023/05/17 13:25:39;;;;;;;16.80;6.17;;;;;;;;;;10388665;28;20064;-75
2023/05/17 13:30:48;;;;;;;19.55;7.28;;;;;;;;;;10394265;28;20098;-83
2023/05/17 13:35:49;;;;;;;17.17;6.38;;;;;;;;;;10404753;28;20086;-77
2023/05/17 13:40:50;;;;;;;14.57;7.23;;;;;;;;;;10409607;28;20075;-80
2023/05/17 13:45:55;;;;;;;14.90;6.22;;;;;;;;;;10374250;28;20538;-78
2023/05/17 13:50:55;;;;;;;16.48;6.25;;;;;;;;;;10370632;28;20058;-79
2023/05/17 13:55:56;;;;;;;15.17;5.37;;;;;;;;;;10390755;28;20153;-75
2023/05/17 14:00:56;;;;;;;13.43;5.63;;;;;;;;;;10376562;28;20121;-79
2023/05/17 14:05:57;;;;;;;20.33;5.50;;;;;;;;;;10381864;28;20107;-78
2023/05/17 14:10:58;;;;;;;14.75;3.97;;;;;;;;;;10393148;28;20116;-79
2023/05/17 14:15:58;;;;;;;12.97;5.90;;;;;;;;;;10407964;28;20498;-78
2023/05/17 14:20:59;;;;;;;11.75;4.70;;;;;;;;;;10407868;28;20108;-76
2023/05/17 14:26:01;;;;;;;7.20;3.70;;;;;;;;;;10392541;28;20037;-80
2023/05/17 14:31:02;;;;;;;10.40;4.57;;;;;;;;;;10391226;28;20557;-79
2023/05/17 14:36:05;;;;;;;12.17;4.73;;;;;;;;;;10389970;28;20037;-78
2023/05/17 14:41:05;;;;;;;11.48;4.93;;;;;;;;;;10394017;28;20080;-77
2023/05/17 14:46:05;;;;;;;10.40;4.80;;;;;;;;;;10338723;28;20058;-80
2023/05/17 14:51:06;;;;;;;12.13;4.18;;;;;;;;;;10333495;28;20034;-80
2023/05/17 14:56:07;;;;;;;9.70;4.18;;;;;;;;;;10367772;28;20034;-83
2023/05/17 15:01:08;;;;;;;8.45;4.78;;;;;;;;;;10349186;28;20084;-80
2023/05/17 15:06:08;;;;;;;14.43;5.10;;;;;;;;;;10349601;28;20034;-77
2023/05/17 15:11:10;;;;;;;7.68;4.15;;;;;;;;;;10352269;28;20034;-78
2023/05/17 15:16:11;;;;;;;7.85;4.63;;;;;;;;;;10338494;28;20424;-76
2023/05/17 15:21:12;;;;;;;11.35;4.45;;;;;;;;;;10352144;28;20033;-80
2023/05/17 15:26:13;;;;;;;12.27;5.90;;;;;;;;;;10334951;28;20042;-82
2023/05/17 15:31:13;;;;;;;15.65;5.72;;;;;;;;;;10344701;28;20439;-78
2023/05/17 15:36:15;;;;;;;14.55;5.75;;;;;;;;;;10336827;28;20104;-75
2023/05/17 15:41:25;;;;;;;17.83;5.45;;;;;;;;;;10353340;28;20038;-69
2023/05/17 15:46:26;;;;;;;17.15;6.72;;;;;;;;;;10381887;28;20045;-76
2023/05/17 15:51:27;;;;;;;16.20;7.10;;;;;;;;;;10388359;28;20318;-77
2023/05/17 15:56:45;;;;;;;21.33;7.20;;;;;;;;;;10385112;28;20092;-72
2023/05/17 16:01:53;;;;;;;23.88;7.65;;;;;;;;;;10399889;28;20514;-77
2023/05/17 16:06:55;;;;;;;24.88;8.27;;;;;;;;;;10386296;28;20041;-78
2023/05/17 16:11:57;;;;;;;32.35;10.05;;;;;;;;;;10410205;28;20148;-79
2023/05/17 16:17:08;;;;;;;19.17;8.67;;;;;;;;;;10401556;28;20135;-75
2023/05/17 16:22:09;;;;;;;19.60;8.32;;;;;;;;;;10387844;28;20491;-78
2023/05/17 16:27:09;;;;;;;22.20;7.40;;;;;;;;;;10387423;28;20041;-72
2023/05/17 16:32:10;;;;;;;13.05;7.18;;;;;;;;;;10373458;28;20459;-80
2023/05/17 16:37:10;;;;;;;15.63;4.57;;;;;;;;;;10387455;28;20125;-78
2023/05/17 16:42:10;;;;;;;12.85;4.95;;;;;;;;;;10367287;28;20249;-78
2023/05/17 16:47:11;;;;;;;20.85;6.22;;;;;;;;;;10385597;28;20029;-83
2023/05/17 16:52:11;;;;;;;17.08;5.75;;;;;;;;;;10377815;28;20038;-80
2023/05/17 16:57:13;;;;;;;18.20;5.07;;;;;;;;;;10388450;28;20049;-76
2023/05/17 17:02:14;;;;;;;12.32;5.28;;;;;;;;;;10394338;28;20069;-81
2023/05/17 17:07:14;;;;;;;16.92;6.85;;;;;;;;;;10393840;28;20037;-81
2023/05/17 17:12:15;;;;;;;10.43;4.60;;;;;;;;;;10388718;28;20484;-81
2023/05/17 17:17:15;;;;;;;18.93;6.27;;;;;;;;;;10384651;28;20283;-74
2023/05/17 17:22:15;;;;;;;17.13;7.80;;;;;;;;;;10375687;28;20279;-78
2023/05/17 17:27:22;;;;;;;24.73;11.93;;;;;;;;;;10371283;28;20034;-80
2023/05/17 17:32:24;;;;;;;17.77;7.50;;;;;;;;;;10382415;28;20128;-77
2023/05/17 17:37:24;;;;;;;17.55;7.40;;;;;;;;;;10365103;28;20608;-78
2023/05/17 17:42:25;;;;;;;16.67;7.88;;;;;;;;;;10342455;28;20054;-73
2023/05/17 17:47:26;;;;;;;20.67;7.72;;;;;;;;;;10354927;28;20044;-74
2023/05/17 17:52:26;;;;;;;13.82;7.13;;;;;;;;;;10329948;28;20042;-76
2023/05/17 17:57:26;;;;;;;15.93;7.03;;;;;;;;;;10326888;28;20072;-76
2023/05/17 18:02:28;;;;;;;13.35;7.28;;;;;;;;;;10340649;28;20057;-76
2023/05/17 18:07:28;;;;;;;15.95;6.15;;;;;;;;;;10307421;28;20069;-74
2023/05/17 18:12:28;;;;;;;14.57;6.10;;;;;;;;;;10325724;28;20037;-76
2023/05/17 18:17:28;;;;;;;19.25;6.18;;;;;;;;;;10335178;28;20033;-75
2023/05/17 18:22:29;;;;;;;16.52;6.35;;;;;;;;;;10332832;28;20042;-72
2023/05/17 18:27:29;;;;;;;18.75;6.57;;;;;;;;;;10332161;28;20037;-76
2023/05/17 18:32:29;;;;;;;17.05;7.03;;;;;;;;;;10339649;28;20091;-74
2023/05/17 18:37:31;;;;;;;14.60;8.25;;;;;;;;;;10340872;28;20495;-73
2023/05/17 18:42:32;;;;;;;20.60;8.57;;;;;;;;;;10328786;28;20512;-74
2023/05/17 18:47:32;;;;;;;19.30;7.88;;;;;;;;;;10326936;28;20095;-74
2023/05/17 18:52:37;;;;;;;18.10;8.50;;;;;;;;;;10323957;28;20476;-79
2023/05/17 18:57:38;;;;;;;18.92;7.32;;;;;;;;;;10335978;28;20103;-71
2023/05/17 19:02:39;;;;;;;20.55;8.63;;;;;;;;;;10329800;28;20503;-70
2023/05/17 19:07:39;;;;;;;16.92;8.45;;;;;;;;;;10333206;28;20459;-73
2023/05/17 19:12:43;;;;;;;14.18;9.00;;;;;;;;;;10349579;28;20148;-76
2023/05/17 19:17:44;;;;;;;19.80;9.15;;;;;;;;;;10332171;28;20522;-77
2023/05/17 19:22:46;;;;;;;15.55;9.07;;;;;;;;;;10354828;28;20029;-76
2023/05/17 19:27:46;;;;;;;15.70;8.38;;;;;;;;;;10352047;28;20519;-73
2023/05/17 19:32:48;;;;;;;18.47;9.43;;;;;;;;;;10332150;28;20033;-77
2023/05/17 19:37:48;;;;;;;16.38;7.75;;;;;;;;;;10330502;28;20030;-81
2023/05/17 19:42:48;;;;;;;18.40;8.60;;;;;;;;;;10327612;28;20045;-71
2023/05/17 19:48:12;;;;;;;17.33;8.68;;;;;;;;;;10297057;28;20037;-84
2023/05/17 19:53:13;;;;;;;21.52;10.45;;;;;;;;;;10310933;28;20515;-76
2023/05/17 19:58:19;;;;;;;25.83;12.88;;;;;;;;;;10309428;28;20117;-75
2023/05/17 20:03:21;;;;;;;26.35;12.73;;;;;;;;;;10264524;28;20084;-77
2023/05/17 20:08:23;;;;;;;24.02;10.18;;;;;;;;;;10301205;28;20044;-76
2023/05/17 20:13:27;;;;;;;20.40;12.23;;;;;;;;;;10302295;28;20033;-76
2023/05/17 20:18:28;;;;;;;24.13;10.00;;;;;;;;;;10325457;28;20088;-77
2023/05/17 20:23:29;;;;;;;23.35;11.80;;;;;;;;;;10307835;28;20038;-76
2023/05/17 20:28:29;;;;;;;22.47;10.30;;;;;;;;;;10326414;28;20034;-77
2023/05/17 20:33:29;;;;;;;24.92;10.00;;;;;;;;;;10308173;28;20281;-77
2023/05/17 20:38:29;;;;;;;15.90;8.27;;;;;;;;;;10323996;28;20026;-75
2023/05/17 20:43:33;;;;;;;19.27;7.65;;;;;;;;;;10324048;28;20578;-76
2023/05/17 20:48:33;;;;;;;16.80;7.70;;;;;;;;;;10326689;28;20045;-78
2023/05/17 20:53:33;;;;;;;20.25;7.57;;;;;;;;;;10306619;28;20041;-76
2023/05/17 20:58:33;;;;;;;9.02;5.68;;;;;;;;;;10307182;28;20096;-75
2023/05/17 21:03:34;;;;;;;14.55;4.78;;;;;;;;;;10307855;28;20463;-75
2023/05/17 21:08:35;;;;;;;11.75;5.35;;;;;;;;;;10309328;28;20045;-72
2023/05/17 21:13:36;;;;;;;11.80;5.70;;;;;;;;;;10306631;28;20037;-75
2023/05/17 21:18:38;;;;;;;14.38;4.88;;;;;;;;;;10322422;28;20463;-75
2023/05/17 21:23:39;;;;;;;9.85;5.50;;;;;;;;;;10301580;28;20483;-74
2023/05/17 21:28:40;;;;;;;10.55;4.60;;;;;;;;;;10306008;28;20030;-76
2023/05/17 21:33:42;;;;;;;12.25;5.50;;;;;;;;;;10311100;28;20022;-76
2023/05/17 21:38:43;;;;;;;9.57;4.28;;;;;;;;;;10332730;28;20022;-75
2023/05/17 21:43:43;;;;;;;12.18;5.63;;;;;;;;;;10329870;28;20104;-77
2023/05/17 21:48:43;;;;;;;10.80;4.67;;;;;;;;;;10313824;28;20026;-76
2023/05/17 21:53:45;;;;;;;11.05;4.88;;;;;;;;;;10330263;28;20026;-75
2023/05/17 21:58:45;;;;;;;12.23;5.35;;;;;;;;;;10313412;28;20034;-71
2023/05/17 22:03:49;;;;;;;12.50;5.37;;;;;;;;;;10320278;28;20495;-74
2023/05/17 22:08:49;;;;;;;7.85;4.63;;;;;;;;;;10312142;28;20108;-76
2023/05/17 22:13:50;;;;;;;9.82;3.85;;;;;;;;;;10310757;28;20021;-76
2023/05/17 22:18:53;;;;;;;10.55;4.88;;;;;;;;;;10313474;28;20769;-75
2023/05/17 22:23:54;;;;;;;11.25;5.25;;;;;;;;;;10316367;28;20029;-76
2023/05/17 22:28:54;;;;;;;9.00;5.50;;;;;;;;;;10311098;28;20037;-75
2023/05/17 22:33:55;;;;;;;12.40;6.85;;;;;;;;;;10326638;28;20555;-75
2023/05/17 22:38:57;;;;;;;26.77;11.50;;;;;;;;;;10311199;28;20487;-76
2023/05/17 22:43:57;;;;;;;27.42;14.15;;;;;;;;;;10311770;28;20500;-76
2023/05/17 22:48:57;;;;;;;31.40;13.65;;;;;;;;;;10312126;28;20030;-75
2023/05/17 22:53:58;;;;;;;25.03;12.37;;;;;;;;;;10305411;28;20080;-76
2023/05/17 22:58:58;;;;;;;19.35;11.07;;;;;;;;;;10313417;28;20253;-74
2023/05/17 23:03:58;;;;;;;20.90;8.02;;;;;;;;;;10310409;28;20184;-75
2023/05/17 23:09:03;;;;;;;14.27;7.13;;;;;;;;;;10310053;28;20112;-74
2023/05/17 23:14:04;;;;;;;13.48;6.45;;;;;;;;;;10309088;28;20036;-75
2023/05/17 23:19:06;;;;;;;20.70;6.80;;;;;;;;;;10315486;28;20036;-74
2023/05/17 23:24:07;;;;;;;8.25;4.60;;;;;;;;;;10320820;28;20056;-75
2023/05/17 23:29:09;;;;;;;10.75;4.47;;;;;;;;;;10308060;28;20076;-77
2023/05/17 23:34:10;;;;;;;8.40;3.97;;;;;;;;;;10325615;28;20042;-74
2023/05/17 23:39:10;;;;;;;11.05;4.47;;;;;;;;;;10309608;28;20022;-75
2023/05/17 23:44:10;;;;;;;6.93;3.60;;;;;;;;;;10343434;28;20057;-75
2023/05/17 23:49:10;;;;;;;9.75;3.25;;;;;;;;;;10385844;28;20506;-76
2023/05/17 23:54:12;;;;;;;7.85;1.70;;;;;;;;;;10385119;28;20502;-75
2023/05/17 23:59:13;;;;;;;4.32;1.58;;;;;;;;;;10384605;28;20029;-79
